createdAt,value
2023-03-01T00:00:36.228Z,12.85
2023-03-01T00:03:06.839Z,13.23
2023-03-01T00:05:36.928Z,13.52
2023-03-01T00:08:06.898Z,12.52
2023-03-01T00:10:37.421Z,12.38
2023-03-01T00:13:07.600Z,11.52
2023-03-01T00:15:42.422Z,13.30
2023-03-01T00:18:12.842Z,13.52
2023-03-01T00:20:43.328Z,12.77
2023-03-01T00:23:13.592Z,14.30
2023-03-01T00:25:45.149Z,19.00
2023-03-01T00:28:15.444Z,15.77
2023-03-01T00:30:46.164Z,15.25
2023-03-01T00:33:16.583Z,14.20
2023-03-01T00:35:47.210Z,13.70
2023-03-01T00:38:17.340Z,12.02
2023-03-01T00:40:47.792Z,11.55
2023-03-01T00:43:17.959Z,11.13
2023-03-01T00:45:48.469Z,12.02
2023-03-01T00:48:18.690Z,14.27
2023-03-01T00:50:49.146Z,12.70
2023-03-01T00:53:19.448Z,11.18
2023-03-01T00:55:50.098Z,12.20
2023-03-01T00:58:20.205Z,12.02
2023-03-01T01:00:50.725Z,11.38
2023-03-01T01:03:21.171Z,11.52
2023-03-01T01:05:51.622Z,11.70
2023-03-01T01:08:22.818Z,12.48
2023-03-01T01:10:53.445Z,14.25
2023-03-01T01:13:23.815Z,13.77
2023-03-01T01:15:54.339Z,11.60
2023-03-01T01:18:25.607Z,11.20
2023-03-01T01:20:56.087Z,12.07
2023-03-01T01:23:26.529Z,12.25
2023-03-01T01:25:57.258Z,14.50
2023-03-01T01:28:27.413Z,16.30
2023-03-01T01:30:58.165Z,16.35
2023-03-01T01:33:30.529Z,17.17
2023-03-01T01:36:01.952Z,17.77
2023-03-01T01:38:32.164Z,16.90
2023-03-01T01:41:02.737Z,15.38
2023-03-01T01:43:50.504Z,12.52
2023-03-01T01:46:59.638Z,12.40
2023-03-01T01:49:48.797Z,12.68
2023-03-01T01:52:36.417Z,11.55
2023-03-01T01:55:14.233Z,12.07
2023-03-01T01:57:51.318Z,12.32
2023-03-01T02:00:25.585Z,12.20
2023-03-01T02:03:05.919Z,11.30
2023-03-01T02:05:59.254Z,13.18
2023-03-01T02:08:33.823Z,14.07
2023-03-01T02:11:06.416Z,12.95
2023-03-01T02:13:38.670Z,13.90
2023-03-01T02:16:13.379Z,14.85
2023-03-01T02:18:45.725Z,17.20
2023-03-01T02:21:56.314Z,18.73
2023-03-01T02:24:41.972Z,18.13
2023-03-01T02:27:13.263Z,11.45
2023-03-01T02:29:46.073Z,12.13
2023-03-01T02:32:17.611Z,11.30
2023-03-01T02:34:48.093Z,13.73
2023-03-01T02:37:26.775Z,15.52
2023-03-01T02:40:09.372Z,16.02
2023-03-01T02:42:47.352Z,16.15
2023-03-01T02:45:18.119Z,15.48
2023-03-01T02:47:48.273Z,13.52
2023-03-01T02:51:14.138Z,14.90
2023-03-01T02:54:15.953Z,14.63
2023-03-01T02:56:50.975Z,13.88
2023-03-01T02:59:28.912Z,14.25
2023-03-01T03:01:59.566Z,16.88
2023-03-01T03:04:29.734Z,17.95
2023-03-01T03:07:00.579Z,16.08
2023-03-01T03:09:30.632Z,16.33
2023-03-01T03:12:01.127Z,16.67
2023-03-01T03:14:31.827Z,17.00
2023-03-01T03:17:02.298Z,17.75
2023-03-01T03:19:32.388Z,18.45
2023-03-01T03:22:03.975Z,18.80
2023-03-01T03:24:40.154Z,18.52
2023-03-01T03:27:10.657Z,18.73
2023-03-01T03:29:40.772Z,17.60
2023-03-01T03:32:11.349Z,17.55
2023-03-01T03:34:41.514Z,18.40
2023-03-01T03:37:31.162Z,18.10
2023-03-01T03:40:01.975Z,18.63
2023-03-01T03:42:32.046Z,17.73
2023-03-01T03:45:02.535Z,20.13
2023-03-01T03:47:32.388Z,18.63
2023-03-01T03:50:02.899Z,18.20
2023-03-01T03:52:32.983Z,18.45
2023-03-01T03:55:03.536Z,16.45
2023-03-01T03:57:33.416Z,16.60
2023-03-01T04:00:07.094Z,16.48
2023-03-01T04:02:48.804Z,20.38
2023-03-01T04:05:21.257Z,17.05
2023-03-01T04:07:51.474Z,17.45
2023-03-01T04:10:22.032Z,16.35
2023-03-01T04:12:52.063Z,15.15
2023-03-01T04:15:22.552Z,14.55
2023-03-01T04:17:54.949Z,17.65
2023-03-01T04:20:31.840Z,17.55
2023-03-01T04:23:15.521Z,15.63
2023-03-01T04:25:57.393Z,15.73
2023-03-01T04:28:29.735Z,16.05
2023-03-01T04:31:08.514Z,16.45
2023-03-01T04:33:38.830Z,17.15
2023-03-01T04:36:10.972Z,19.90
2023-03-01T04:38:42.422Z,20.50
2023-03-01T04:41:13.649Z,22.23
2023-03-01T04:43:43.791Z,21.50
2023-03-01T04:46:17.581Z,21.13
2023-03-01T04:48:49.360Z,20.98
2023-03-01T04:51:20.526Z,20.90
2023-03-01T04:53:50.625Z,22.60
2023-03-01T04:56:21.266Z,23.38
2023-03-01T04:58:51.416Z,23.52
2023-03-01T05:01:23.288Z,24.42
2023-03-01T05:03:54.328Z,21.77
2023-03-01T05:06:24.869Z,23.45
2023-03-01T05:08:54.875Z,23.77
2023-03-01T05:11:25.413Z,22.65
2023-03-01T05:13:57.103Z,21.67
2023-03-01T05:16:27.737Z,22.23
2023-03-01T05:18:58.904Z,21.80
2023-03-01T05:21:29.573Z,21.15
2023-03-01T05:23:59.672Z,21.80
2023-03-01T05:26:30.991Z,21.25
2023-03-01T05:29:01.290Z,21.83
2023-03-01T05:31:32.843Z,21.15
2023-03-01T05:34:03.933Z,20.42
2023-03-01T05:36:34.497Z,20.48
2023-03-01T05:39:04.586Z,18.73
2023-03-01T05:41:35.089Z,20.05
2023-03-01T05:44:06.977Z,20.08
2023-03-01T05:46:37.419Z,20.90
2023-03-01T05:49:07.564Z,21.13
2023-03-01T05:51:38.558Z,20.35
2023-03-01T05:54:09.527Z,21.25
2023-03-01T05:56:40.144Z,20.27
2023-03-01T05:59:10.171Z,21.65
2023-03-01T06:01:40.751Z,23.77
2023-03-01T06:04:10.900Z,19.33
2023-03-01T06:06:41.666Z,23.25
2023-03-01T06:09:12.043Z,23.48
2023-03-01T06:11:42.596Z,23.20
2023-03-01T06:14:15.037Z,25.13
2023-03-01T06:16:45.581Z,25.33
2023-03-01T06:19:15.655Z,21.60
2023-03-01T06:21:46.153Z,26.10
2023-03-01T06:24:16.234Z,26.65
2023-03-01T06:26:46.905Z,24.58
2023-03-01T06:29:16.943Z,31.52
2023-03-01T06:31:48.065Z,26.48
2023-03-01T06:34:18.837Z,29.85
2023-03-01T06:36:49.390Z,30.33
2023-03-01T06:39:19.918Z,26.45
2023-03-01T06:41:50.020Z,30.95
2023-03-01T06:44:19.922Z,31.00
2023-03-01T06:46:50.502Z,28.23
2023-03-01T06:49:22.007Z,28.80
2023-03-01T06:51:52.468Z,29.05
2023-03-01T06:54:24.452Z,27.70
2023-03-01T06:56:54.988Z,29.55
2023-03-01T06:59:24.997Z,31.65
2023-03-01T07:01:54.932Z,32.17
2023-03-01T07:04:25.674Z,29.80
2023-03-01T07:06:57.324Z,28.75
2023-03-01T07:09:27.895Z,25.33
2023-03-01T07:11:59.517Z,26.58
2023-03-01T07:14:30.063Z,24.77
2023-03-01T07:17:00.187Z,27.50
2023-03-01T07:19:30.025Z,28.73
2023-03-01T07:22:00.496Z,30.08
2023-03-01T07:24:31.479Z,30.67
2023-03-01T07:27:02.186Z,31.13
2023-03-01T07:29:32.653Z,31.17
2023-03-01T07:32:03.266Z,30.58
2023-03-01T07:34:33.518Z,33.63
2023-03-01T07:37:04.015Z,35.67
2023-03-01T07:39:34.204Z,31.27
2023-03-01T07:42:04.797Z,32.65
2023-03-01T07:44:39.156Z,27.38
2023-03-01T07:47:09.656Z,31.52
2023-03-01T07:49:39.697Z,29.95
2023-03-01T07:52:12.302Z,32.92
2023-03-01T07:54:45.486Z,25.77
2023-03-01T07:57:16.006Z,28.45
2023-03-01T07:59:46.234Z,32.22
2023-03-01T08:02:17.338Z,23.33
2023-03-01T08:04:47.404Z,21.60
2023-03-01T08:07:18.057Z,26.13
2023-03-01T08:09:48.122Z,27.42
2023-03-01T08:12:21.746Z,29.30
2023-03-01T08:14:52.051Z,27.13
2023-03-01T08:17:22.571Z,27.20
2023-03-01T08:19:52.627Z,29.23
2023-03-01T08:22:23.164Z,29.02
2023-03-01T08:24:53.885Z,25.10
2023-03-01T08:27:25.645Z,27.27
2023-03-01T08:29:56.374Z,24.58
2023-03-01T08:32:26.474Z,25.50
2023-03-01T08:34:57.048Z,25.15
2023-03-01T08:37:27.725Z,27.02
2023-03-01T08:39:58.300Z,27.88
2023-03-01T08:42:28.891Z,27.17
2023-03-01T08:44:59.466Z,29.23
2023-03-01T08:47:29.548Z,27.00
2023-03-01T08:50:00.144Z,28.88
2023-03-01T08:52:30.849Z,29.08
2023-03-01T08:55:03.583Z,19.10
2023-03-01T08:57:34.516Z,24.98
2023-03-01T09:00:07.779Z,28.80
2023-03-01T09:02:38.011Z,28.65
2023-03-01T09:05:08.762Z,23.77
2023-03-01T09:07:38.807Z,20.08
2023-03-01T09:10:09.814Z,22.58
2023-03-01T09:12:39.927Z,22.00
2023-03-01T09:15:11.036Z,21.80
2023-03-01T09:17:41.095Z,24.55
2023-03-01T09:20:12.299Z,25.35
2023-03-01T09:22:42.386Z,25.33
2023-03-01T09:25:12.889Z,25.55
2023-03-01T09:27:43.012Z,28.00
2023-03-01T09:30:14.614Z,25.63
2023-03-01T09:32:44.761Z,29.45
2023-03-01T09:35:15.578Z,31.13
2023-03-01T09:37:46.694Z,29.70
2023-03-01T09:40:21.089Z,31.63
2023-03-01T09:43:15.847Z,31.33
2023-03-01T09:45:49.576Z,23.00
2023-03-01T09:48:26.992Z,20.23
2023-03-01T09:50:57.777Z,28.33
2023-03-01T09:53:37.322Z,21.27
2023-03-01T09:56:12.202Z,21.63
2023-03-01T09:59:23.240Z,17.10
2023-03-01T10:01:55.549Z,14.18
2023-03-01T10:04:40.352Z,13.73
2023-03-01T10:07:14.091Z,12.20
2023-03-01T10:09:47.370Z,11.95
2023-03-01T10:12:27.924Z,11.05
2023-03-01T10:15:12.539Z,11.05
2023-03-01T10:18:02.822Z,10.98
2023-03-01T10:21:00.877Z,11.32
2023-03-01T10:23:34.914Z,10.85
2023-03-01T10:26:12.665Z,11.15
2023-03-01T10:28:45.812Z,10.73
2023-03-01T10:31:25.324Z,10.25
2023-03-01T10:33:58.417Z,8.18
2023-03-01T10:36:28.853Z,9.27
2023-03-01T10:39:01.080Z,7.80
2023-03-01T10:41:31.939Z,8.23
2023-03-01T10:44:02.588Z,6.50
2023-03-01T10:46:39.168Z,7.75
2023-03-01T10:49:20.758Z,7.60
2023-03-01T10:51:53.725Z,6.22
2023-03-01T10:54:34.913Z,6.93
2023-03-01T10:57:06.950Z,6.63
2023-03-01T10:59:40.444Z,7.20
2023-03-01T11:02:31.543Z,6.80
2023-03-01T11:05:21.584Z,7.05
2023-03-01T11:07:57.337Z,6.43
2023-03-01T11:10:34.421Z,7.03
2023-03-01T11:13:22.296Z,5.70
2023-03-01T11:16:09.324Z,6.47
2023-03-01T11:18:47.838Z,6.22
2023-03-01T11:21:19.519Z,6.85
2023-03-01T11:23:49.938Z,5.45
2023-03-01T11:26:20.992Z,5.25
2023-03-01T11:28:56.385Z,5.25
2023-03-01T11:31:29.064Z,5.03
2023-03-01T11:34:20.468Z,4.95
2023-03-01T11:37:04.273Z,5.80
2023-03-01T11:39:43.561Z,4.72
2023-03-01T11:42:19.334Z,4.82
2023-03-01T11:44:57.473Z,5.07
2023-03-01T11:47:36.056Z,4.90
2023-03-01T11:50:19.413Z,5.63
2023-03-01T11:53:33.130Z,5.65
2023-03-01T11:56:25.570Z,4.80
2023-03-01T11:59:52.637Z,5.30
2023-03-01T12:02:54.604Z,4.38
2023-03-01T12:05:43.610Z,4.85
2023-03-01T12:08:20.666Z,5.70
2023-03-01T12:11:15.291Z,5.28
2023-03-01T12:14:06.069Z,3.60
2023-03-01T12:16:49.107Z,4.45
2023-03-01T12:19:27.872Z,4.60
2023-03-01T12:22:40.344Z,3.67
2023-03-01T12:25:24.111Z,3.78
2023-03-01T12:28:24.594Z,4.03
2023-03-01T12:31:32.429Z,3.63
2023-03-01T12:34:46.971Z,4.63
2023-03-01T12:37:29.023Z,3.95
2023-03-01T12:40:30.037Z,4.40
2023-03-01T12:43:27.397Z,3.47
2023-03-01T12:45:57.922Z,3.58
2023-03-01T12:48:40.434Z,3.40
2023-03-01T12:51:16.430Z,3.50
2023-03-01T12:53:56.035Z,3.70
2023-03-01T12:56:31.400Z,3.17
2023-03-01T12:59:26.227Z,3.70
2023-03-01T13:02:02.828Z,3.53
2023-03-01T13:04:56.548Z,3.83
2023-03-01T13:07:57.681Z,3.10
2023-03-01T13:10:50.582Z,3.10
2023-03-01T13:13:25.603Z,3.40
2023-03-01T13:15:56.880Z,3.45
2023-03-01T13:18:29.931Z,3.17
2023-03-01T13:21:02.711Z,3.45
2023-03-01T13:23:36.827Z,2.65
2023-03-01T13:26:14.356Z,3.40
2023-03-01T13:28:48.530Z,3.40
2023-03-01T13:31:18.653Z,3.13
2023-03-01T13:34:00.311Z,3.00
2023-03-01T13:36:31.272Z,3.10
2023-03-01T13:39:07.764Z,3.63
2023-03-01T13:41:47.285Z,3.22
2023-03-01T13:44:38.040Z,3.60
2023-03-01T13:47:16.984Z,3.90
2023-03-01T13:49:53.472Z,3.20
2023-03-01T13:52:43.184Z,3.35
2023-03-01T13:55:28.667Z,3.17
2023-03-01T13:58:04.644Z,3.25
2023-03-01T14:00:40.705Z,3.47
2023-03-01T14:03:22.307Z,3.53
2023-03-01T14:06:23.003Z,3.40
2023-03-01T14:09:03.937Z,3.55
2023-03-01T14:11:55.886Z,3.65
2023-03-01T14:14:46.988Z,3.80
2023-03-01T14:17:39.857Z,3.30
2023-03-01T14:20:29.379Z,3.30
2023-03-01T14:23:04.113Z,3.25
2023-03-01T14:25:37.465Z,3.35
2023-03-01T14:28:30.854Z,3.10
2023-03-01T14:31:03.571Z,2.90
2023-03-01T14:33:38.233Z,3.10
2023-03-01T14:36:13.851Z,3.33
2023-03-01T14:38:46.830Z,2.70
2023-03-01T14:41:30.758Z,3.15
2023-03-01T14:44:05.794Z,3.40
2023-03-01T14:46:44.325Z,3.17
2023-03-01T14:49:22.283Z,3.35
2023-03-01T14:52:01.546Z,3.67
2023-03-01T14:54:54.068Z,3.45
2023-03-01T14:57:27.538Z,3.50
2023-03-01T15:00:06.332Z,3.38
2023-03-01T15:02:37.918Z,3.00
2023-03-01T15:05:10.358Z,3.17
2023-03-01T15:07:44.111Z,3.00
2023-03-01T15:10:26.633Z,3.45
2023-03-01T15:12:56.977Z,3.45
2023-03-01T15:15:39.986Z,3.15
2023-03-01T15:18:18.793Z,3.20
2023-03-01T15:20:51.325Z,3.05
2023-03-01T15:23:21.392Z,3.00
2023-03-01T15:25:59.107Z,3.00
2023-03-01T15:28:40.066Z,2.85
2023-03-01T15:31:24.636Z,3.03
2023-03-01T15:33:55.080Z,3.17
2023-03-01T15:36:55.687Z,3.15
2023-03-01T15:39:45.527Z,3.53
2023-03-01T15:42:35.692Z,3.00
2023-03-01T15:45:19.105Z,3.70
2023-03-01T15:47:52.278Z,2.83
2023-03-01T15:50:27.289Z,3.10
2023-03-01T15:53:00.269Z,3.50
2023-03-01T15:55:35.412Z,3.63
2023-03-01T15:58:11.809Z,3.10
2023-03-01T16:00:48.758Z,3.78
2023-03-01T16:03:28.772Z,3.70
2023-03-01T16:05:59.043Z,3.78
2023-03-01T16:08:29.935Z,3.40
2023-03-01T16:11:00.204Z,3.13
2023-03-01T16:13:30.812Z,3.08
2023-03-01T16:16:01.433Z,3.20
2023-03-01T16:18:32.102Z,3.53
2023-03-01T16:21:02.577Z,3.03
2023-03-01T16:23:33.021Z,2.95
2023-03-01T16:26:03.409Z,3.45
2023-03-01T16:28:33.940Z,2.88
2023-03-01T16:31:04.006Z,3.05
2023-03-01T16:33:36.152Z,3.05
2023-03-01T16:36:14.444Z,3.70
2023-03-01T16:38:45.072Z,3.60
2023-03-01T16:41:20.873Z,2.90
2023-03-01T16:43:52.229Z,3.30
2023-03-01T16:46:25.304Z,3.28
2023-03-01T16:48:56.537Z,3.50
2023-03-01T16:51:27.902Z,2.92
2023-03-01T16:53:58.512Z,2.75
2023-03-01T16:56:28.774Z,2.85
2023-03-01T16:59:00.362Z,3.28
2023-03-01T17:01:39.531Z,2.80
2023-03-01T17:04:14.325Z,2.55
2023-03-01T17:06:44.481Z,3.42
2023-03-01T17:09:15.278Z,2.80
2023-03-01T17:11:45.902Z,2.75
2023-03-01T17:14:18.270Z,2.75
2023-03-01T17:16:48.536Z,3.00
2023-03-01T17:19:20.208Z,2.47
2023-03-01T17:21:50.653Z,2.20
2023-03-01T17:24:21.332Z,2.42
2023-03-01T17:26:51.467Z,2.50
2023-03-01T17:29:22.030Z,2.92
2023-03-01T17:31:52.453Z,2.90
2023-03-01T17:34:23.755Z,2.40
2023-03-01T17:36:54.401Z,2.60
2023-03-01T17:39:31.442Z,3.03
2023-03-01T17:42:02.323Z,2.38
2023-03-01T17:44:35.043Z,2.83
2023-03-01T17:47:07.837Z,2.78
2023-03-01T17:49:38.393Z,2.70
2023-03-01T17:52:09.628Z,3.00
2023-03-01T17:54:40.945Z,2.40
2023-03-01T17:57:11.362Z,2.45
2023-03-01T17:59:41.957Z,2.95
2023-03-01T18:02:15.222Z,2.67
2023-03-01T18:04:46.483Z,2.47
2023-03-01T18:07:17.137Z,2.90
2023-03-01T18:09:47.664Z,3.13
2023-03-01T18:12:18.102Z,3.00
2023-03-01T18:14:49.536Z,2.80
2023-03-01T18:17:19.655Z,3.30
2023-03-01T18:19:50.147Z,2.83
2023-03-01T18:22:20.130Z,3.08
2023-03-01T18:24:50.698Z,3.38
2023-03-01T18:27:21.614Z,3.53
2023-03-01T18:29:53.539Z,3.10
2023-03-01T18:34:54.036Z,21.95
2023-03-01T18:37:24.052Z,3.20
2023-03-01T18:39:56.155Z,3.00
2023-03-01T18:42:26.602Z,7.30
2023-03-01T18:44:57.159Z,6.03
2023-03-01T18:47:27.937Z,3.95
2023-03-01T18:49:59.516Z,2.83
2023-03-01T18:52:30.064Z,3.85
2023-03-01T18:55:00.515Z,3.60
2023-03-01T18:57:33.527Z,3.83
2023-03-01T19:00:06.093Z,3.30
2023-03-01T19:02:36.452Z,3.30
2023-03-01T19:05:07.415Z,3.58
2023-03-01T19:07:37.579Z,3.15
2023-03-01T19:10:09.636Z,4.25
2023-03-01T19:12:39.977Z,3.50
2023-03-01T19:15:11.645Z,3.67
2023-03-01T19:17:42.117Z,3.75
2023-03-01T19:20:13.650Z,4.50
2023-03-01T19:22:44.482Z,4.00
2023-03-01T19:25:15.839Z,3.97
2023-03-01T19:27:46.124Z,4.25
2023-03-01T19:30:17.225Z,4.45
2023-03-01T19:32:48.140Z,5.10
2023-03-01T19:35:21.766Z,4.78
2023-03-01T19:37:52.823Z,4.38
2023-03-01T19:40:23.521Z,3.60
2023-03-01T19:42:53.589Z,3.78
2023-03-01T19:45:32.978Z,5.45
2023-03-01T19:48:03.643Z,5.40
2023-03-01T19:50:34.191Z,5.72
2023-03-01T19:53:04.432Z,4.18
2023-03-01T19:55:38.379Z,4.97
2023-03-01T19:58:09.881Z,4.03
2023-03-01T20:00:41.480Z,3.67
2023-03-01T20:03:11.697Z,3.88
2023-03-01T20:05:44.090Z,3.70
2023-03-01T20:10:44.548Z,4.15
2023-03-01T20:13:14.624Z,3.50
2023-03-01T20:15:45.660Z,3.90
2023-03-01T20:18:16.409Z,2.90
2023-03-01T20:20:51.360Z,4.03
2023-03-01T20:23:22.047Z,3.92
2023-03-01T20:25:52.795Z,4.20
2023-03-01T20:28:22.906Z,4.30
2023-03-01T20:30:53.368Z,4.97
2023-03-01T20:33:23.215Z,4.00
2023-03-01T20:35:55.130Z,3.97
2023-03-01T20:38:26.240Z,4.10
2023-03-01T20:41:05.842Z,4.65
2023-03-01T20:43:37.111Z,6.45
2023-03-01T20:46:09.493Z,6.22
2023-03-01T20:48:39.904Z,5.75
2023-03-01T20:51:12.275Z,5.13
2023-03-01T20:56:16.016Z,4.80
2023-03-01T20:59:10.472Z,4.97
2023-03-01T21:01:41.369Z,5.35
2023-03-01T21:04:12.448Z,4.50
2023-03-01T21:06:44.087Z,4.60
2023-03-01T21:09:14.346Z,4.88
2023-03-01T21:11:44.903Z,4.38
2023-03-01T21:14:15.008Z,4.05
2023-03-01T21:16:48.517Z,4.35
2023-03-01T21:19:18.864Z,4.82
2023-03-01T21:21:49.571Z,4.72
2023-03-01T21:24:19.676Z,4.80
2023-03-01T21:26:50.204Z,2.85
2023-03-01T21:29:20.267Z,3.10
2023-03-01T21:31:51.897Z,3.17
2023-03-01T21:34:22.077Z,2.42
2023-03-01T21:36:52.624Z,1.92
2023-03-01T21:39:23.349Z,2.03
2023-03-01T21:41:59.745Z,2.65
2023-03-01T21:44:31.087Z,2.40
2023-03-01T21:47:01.615Z,3.05
2023-03-01T21:49:31.676Z,3.72
2023-03-01T21:52:02.165Z,3.70
2023-03-01T21:54:34.143Z,2.58
2023-03-01T21:57:04.764Z,1.85
2023-03-01T21:59:34.877Z,2.90
2023-03-01T22:02:05.442Z,3.80
2023-03-01T22:04:35.513Z,4.35
2023-03-01T22:07:05.948Z,4.25
2023-03-01T22:09:37.402Z,3.47
2023-03-01T22:12:08.503Z,2.90
2023-03-01T22:14:38.631Z,4.15
2023-03-01T22:17:09.113Z,3.72
2023-03-01T22:19:39.306Z,2.75
2023-03-01T22:22:09.781Z,3.63
2023-03-01T22:24:39.724Z,4.07
2023-03-01T22:27:10.280Z,3.60
2023-03-01T22:29:40.376Z,3.45
2023-03-01T22:32:11.907Z,3.05
2023-03-01T22:34:42.445Z,3.08
2023-03-01T22:37:12.959Z,3.17
2023-03-01T22:39:43.101Z,3.95
2023-03-01T22:42:13.610Z,3.88
2023-03-01T22:44:43.714Z,2.90
2023-03-01T22:47:14.184Z,3.63
2023-03-01T22:49:45.025Z,3.60
2023-03-01T22:52:15.675Z,4.80
2023-03-01T22:54:45.876Z,4.95
2023-03-01T22:57:16.605Z,4.07
2023-03-01T22:59:46.751Z,4.85
2023-03-01T23:02:17.391Z,4.57
2023-03-01T23:04:49.608Z,5.05
2023-03-01T23:07:20.071Z,5.10
2023-03-01T23:09:51.168Z,5.15
2023-03-01T23:12:21.871Z,4.95
2023-03-01T23:14:52.067Z,4.85
2023-03-01T23:17:22.641Z,4.85
2023-03-01T23:19:52.878Z,4.80
2023-03-01T23:22:23.494Z,5.63
2023-03-01T23:24:53.873Z,5.75
2023-03-01T23:27:24.342Z,6.57
2023-03-01T23:29:54.443Z,6.03
2023-03-01T23:32:25.136Z,5.93
2023-03-01T23:34:55.266Z,5.90
2023-03-01T23:37:31.824Z,5.72
2023-03-01T23:40:01.991Z,4.80
2023-03-01T23:42:32.463Z,6.53
2023-03-01T23:45:03.191Z,6.82
2023-03-01T23:47:34.614Z,6.55
2023-03-01T23:50:06.572Z,6.50
2023-03-01T23:52:42.687Z,6.55
2023-03-01T23:55:14.435Z,6.32
2023-03-01T23:57:44.995Z,7.95
